createdAt,value
2023-01-09T00:00:21.044Z,7.20
2023-01-09T00:02:48.154Z,7.20
2023-01-09T00:05:16.377Z,7.10
2023-01-09T00:07:43.601Z,7.20
2023-01-09T00:10:10.995Z,7.20
2023-01-09T00:12:38.144Z,7.20
2023-01-09T00:15:06.071Z,7.20
2023-01-09T00:17:33.179Z,7.40
2023-01-09T00:20:00.311Z,7.20
2023-01-09T00:22:27.378Z,7.20
2023-01-09T00:24:54.590Z,7.30
2023-01-09T00:27:21.702Z,7.20
2023-01-09T00:29:49.565Z,7.30
2023-01-09T00:32:16.703Z,8.30
2023-01-09T00:34:43.840Z,7.30
2023-01-09T00:37:13.753Z,7.30
2023-01-09T00:39:41.947Z,7.20
2023-01-09T00:42:11.266Z,7.30
2023-01-09T00:44:42.504Z,7.40
2023-01-09T00:47:17.950Z,7.60
2023-01-09T00:49:45.576Z,7.40
2023-01-09T00:52:13.602Z,7.50
2023-01-09T00:54:41.209Z,7.50
2023-01-09T00:57:11.065Z,7.50
2023-01-09T00:59:38.367Z,7.50
2023-01-09T01:02:06.007Z,7.50
2023-01-09T01:04:51.998Z,7.60
2023-01-09T01:07:37.632Z,7.60
2023-01-09T01:10:05.981Z,7.50
2023-01-09T01:12:33.111Z,7.60
2023-01-09T01:15:00.257Z,7.60
2023-01-09T01:17:27.363Z,7.60
2023-01-09T01:19:54.547Z,8.80
2023-01-09T01:22:21.738Z,7.60
2023-01-09T01:24:48.997Z,7.60
2023-01-09T01:27:16.133Z,7.50
2023-01-09T01:29:43.251Z,7.50
2023-01-09T01:32:11.780Z,6.70
2023-01-09T01:34:39.079Z,7.60
2023-01-09T01:37:06.248Z,7.60
2023-01-09T01:39:33.347Z,7.60
2023-01-09T01:42:00.531Z,7.60
2023-01-09T01:44:46.276Z,7.60
2023-01-09T01:47:13.657Z,7.60
2023-01-09T01:49:40.956Z,7.60
2023-01-09T01:52:08.194Z,7.60
2023-01-09T01:54:35.308Z,7.60
2023-01-09T01:57:06.056Z,7.60
2023-01-09T01:59:34.927Z,7.60
2023-01-09T02:02:02.825Z,7.60
2023-01-09T02:04:30.808Z,7.60
2023-01-09T02:06:59.449Z,7.60
2023-01-09T02:09:27.002Z,7.60
2023-01-09T02:11:56.584Z,8.40
2023-01-09T02:14:25.932Z,7.60
2023-01-09T02:17:02.072Z,7.60
2023-01-09T02:19:35.183Z,7.60
2023-01-09T02:22:19.297Z,7.60
2023-01-09T02:25:03.240Z,7.60
2023-01-09T02:27:36.450Z,7.60
2023-01-09T02:30:09.734Z,7.60
2023-01-09T02:32:45.720Z,7.60
2023-01-09T02:35:31.690Z,7.60
2023-01-09T02:38:04.895Z,7.60
2023-01-09T02:40:43.037Z,7.60
2023-01-09T02:43:10.617Z,7.60
2023-01-09T02:45:37.719Z,7.60
2023-01-09T02:48:04.973Z,7.60
2023-01-09T02:50:50.942Z,7.60
2023-01-09T02:53:30.048Z,7.60
2023-01-09T02:56:00.027Z,7.60
2023-01-09T02:58:44.420Z,7.60
2023-01-09T03:01:11.589Z,7.50
2023-01-09T03:03:57.682Z,7.60
2023-01-09T03:06:31.042Z,7.60
2023-01-09T03:09:01.442Z,7.60
2023-01-09T03:11:30.638Z,7.40
2023-01-09T03:14:00.724Z,7.50
2023-01-09T03:16:31.798Z,7.50
2023-01-09T03:19:00.621Z,7.50
2023-01-09T03:21:28.442Z,8.00
2023-01-09T03:23:57.178Z,7.40
2023-01-09T03:26:24.810Z,7.30
2023-01-09T03:28:52.154Z,7.40
2023-01-09T03:31:19.473Z,6.60
2023-01-09T03:33:46.678Z,7.30
2023-01-09T03:36:14.396Z,7.30
2023-01-09T03:38:41.528Z,7.30
2023-01-09T03:41:08.689Z,7.30
2023-01-09T03:43:36.031Z,7.20
2023-01-09T03:46:03.450Z,7.30
2023-01-09T03:48:30.736Z,7.20
2023-01-09T03:50:58.121Z,7.20
2023-01-09T03:53:26.695Z,7.10
2023-01-09T03:55:54.558Z,7.10
2023-01-09T03:58:22.059Z,7.10
2023-01-09T04:00:49.399Z,7.40
2023-01-09T04:03:17.626Z,7.00
2023-01-09T04:05:45.554Z,7.10
2023-01-09T04:08:13.371Z,7.10
2023-01-09T04:10:40.498Z,7.10
2023-01-09T04:13:07.612Z,7.20
2023-01-09T04:15:34.747Z,7.10
2023-01-09T04:18:03.714Z,7.00
2023-01-09T04:20:31.110Z,7.00
2023-01-09T04:22:59.542Z,8.10
2023-01-09T04:25:27.132Z,7.00
2023-01-09T04:27:54.236Z,8.50
2023-01-09T04:30:21.548Z,7.00
2023-01-09T04:32:48.690Z,7.00
2023-01-09T04:35:15.810Z,7.00
2023-01-09T04:37:42.900Z,7.00
2023-01-09T04:40:12.354Z,7.00
2023-01-09T04:42:39.817Z,7.00
2023-01-09T04:45:07.964Z,6.90
2023-01-09T04:47:35.096Z,7.00
2023-01-09T04:50:02.221Z,6.90
2023-01-09T04:52:29.401Z,6.80
2023-01-09T04:54:56.467Z,6.90
2023-01-09T04:57:23.597Z,6.90
2023-01-09T04:59:52.141Z,6.90
2023-01-09T05:02:19.359Z,6.80
2023-01-09T05:04:46.445Z,6.90
2023-01-09T05:07:13.578Z,6.90
2023-01-09T05:09:40.700Z,6.90
2023-01-09T05:12:07.914Z,6.80
2023-01-09T05:14:35.019Z,6.40
2023-01-09T05:17:02.145Z,6.80
2023-01-09T05:19:29.295Z,6.90
2023-01-09T05:21:56.409Z,6.90
2023-01-09T05:24:23.525Z,6.90
2023-01-09T05:26:50.723Z,6.90
2023-01-09T05:29:17.841Z,6.90
2023-01-09T05:31:44.983Z,6.50
2023-01-09T05:34:12.162Z,6.80
2023-01-09T05:36:39.236Z,6.90
2023-01-09T05:39:06.666Z,6.80
2023-01-09T05:41:33.834Z,6.90
2023-01-09T05:44:01.014Z,6.80
2023-01-09T05:46:28.179Z,6.90
2023-01-09T05:48:55.264Z,7.60
2023-01-09T05:51:22.402Z,6.90
2023-01-09T05:53:49.773Z,6.90
2023-01-09T05:56:17.105Z,6.90
2023-01-09T05:58:44.476Z,6.90
2023-01-09T06:01:11.592Z,6.00
2023-01-09T06:03:38.656Z,6.90
2023-01-09T06:06:05.972Z,6.90
2023-01-09T06:08:33.104Z,6.90
2023-01-09T06:11:00.263Z,6.90
2023-01-09T06:13:27.523Z,6.90
2023-01-09T06:15:54.623Z,6.80
2023-01-09T06:18:21.722Z,6.80
2023-01-09T06:20:48.831Z,6.80
2023-01-09T06:23:15.910Z,5.70
2023-01-09T06:25:43.046Z,6.80
2023-01-09T06:28:10.327Z,6.80
2023-01-09T06:30:37.457Z,6.90
2023-01-09T06:33:04.581Z,6.80
2023-01-09T06:35:31.673Z,6.80
2023-01-09T06:38:01.402Z,6.80
2023-01-09T06:40:28.543Z,7.90
2023-01-09T06:42:55.630Z,6.90
2023-01-09T06:45:22.721Z,6.90
2023-01-09T06:47:50.236Z,6.80
2023-01-09T06:50:17.433Z,6.80
2023-01-09T06:52:44.632Z,6.80
2023-01-09T06:55:11.826Z,6.80
2023-01-09T06:57:38.920Z,6.80
2023-01-09T07:00:06.391Z,6.80
2023-01-09T07:02:33.581Z,6.80
2023-01-09T07:05:00.913Z,6.80
2023-01-09T07:07:28.095Z,6.80
2023-01-09T07:09:55.491Z,6.80
2023-01-09T07:12:22.643Z,6.90
2023-01-09T07:14:49.850Z,6.80
2023-01-09T07:17:17.035Z,6.80
2023-01-09T07:19:44.208Z,6.80
2023-01-09T07:22:11.627Z,6.80
2023-01-09T07:24:38.811Z,6.80
2023-01-09T07:27:06.042Z,6.90
2023-01-09T07:29:33.364Z,6.80
2023-01-09T07:32:00.508Z,6.80
2023-01-09T07:34:27.612Z,6.50
2023-01-09T07:36:54.886Z,6.80
2023-01-09T07:39:22.209Z,6.80
2023-01-09T07:41:49.323Z,6.80
2023-01-09T07:44:16.652Z,6.80
2023-01-09T07:46:43.986Z,6.90
2023-01-09T07:49:11.091Z,6.80
2023-01-09T07:51:43.234Z,6.80
2023-01-09T07:54:11.418Z,6.00
2023-01-09T07:56:39.330Z,6.90
2023-01-09T07:59:07.015Z,6.80
2023-01-09T08:01:34.243Z,6.90
2023-01-09T08:04:02.119Z,6.90
2023-01-09T08:06:29.416Z,6.90
2023-01-09T08:09:00.491Z,6.90
2023-01-09T08:11:29.333Z,7.00
2023-01-09T08:13:56.438Z,6.90
2023-01-09T08:16:23.678Z,7.00
2023-01-09T08:18:50.766Z,7.00
2023-01-09T08:21:17.968Z,7.10
2023-01-09T08:23:46.704Z,7.10
2023-01-09T08:26:13.943Z,7.10
2023-01-09T08:28:41.042Z,7.10
2023-01-09T08:31:08.529Z,7.10
2023-01-09T08:33:36.100Z,7.90
2023-01-09T08:36:03.626Z,7.10
2023-01-09T08:38:30.816Z,7.10
2023-01-09T08:40:58.189Z,7.00
2023-01-09T08:43:44.192Z,7.10
2023-01-09T08:46:48.955Z,7.10
2023-01-09T08:49:16.215Z,7.00
2023-01-09T08:51:43.354Z,7.00
2023-01-09T08:54:10.599Z,7.00
2023-01-09T08:56:37.841Z,6.90
2023-01-09T08:59:08.036Z,6.90
2023-01-09T09:01:35.298Z,7.00
2023-01-09T09:04:02.886Z,6.90
2023-01-09T09:06:29.985Z,6.90
2023-01-09T09:08:57.173Z,7.00
2023-01-09T09:11:24.297Z,7.00
2023-01-09T09:13:51.412Z,7.10
2023-01-09T09:16:18.572Z,7.10
2023-01-09T09:18:45.661Z,7.90
2023-01-09T09:21:12.836Z,7.10
2023-01-09T09:23:39.950Z,7.20
2023-01-09T09:26:07.073Z,7.10
2023-01-09T09:28:34.163Z,7.20
2023-01-09T09:31:01.333Z,7.20
2023-01-09T09:33:29.372Z,7.20
2023-01-09T09:35:58.412Z,7.10
2023-01-09T09:38:25.578Z,7.10
2023-01-09T09:40:58.653Z,7.10
2023-01-09T09:44:16.837Z,7.10
2023-01-09T09:46:51.255Z,7.10
2023-01-09T09:49:21.515Z,7.20
2023-01-09T09:52:00.993Z,7.20
2023-01-09T09:54:39.919Z,7.30
2023-01-09T09:57:10.200Z,7.30
2023-01-09T09:59:38.784Z,7.30
2023-01-09T10:02:08.985Z,7.80
2023-01-09T10:04:38.081Z,7.40
2023-01-09T10:07:09.637Z,6.80
2023-01-09T10:09:48.487Z,7.50
2023-01-09T10:12:32.124Z,7.40
2023-01-09T10:15:19.526Z,7.50
2023-01-09T10:17:49.672Z,7.50
2023-01-09T10:20:35.170Z,7.60
2023-01-09T10:23:10.050Z,7.60
2023-01-09T10:25:42.801Z,7.70
2023-01-09T10:28:15.695Z,7.70
2023-01-09T10:30:49.085Z,7.80
2023-01-09T10:33:31.800Z,7.80
2023-01-09T10:36:02.111Z,7.80
2023-01-09T10:38:31.522Z,7.80
2023-01-09T10:41:04.458Z,7.90
2023-01-09T10:43:32.291Z,7.90
2023-01-09T10:46:03.305Z,8.00
2023-01-09T10:48:33.990Z,8.00
2023-01-09T10:51:01.145Z,8.00
2023-01-09T10:53:39.713Z,8.10
2023-01-09T10:56:16.530Z,8.10
2023-01-09T10:58:43.618Z,8.10
2023-01-09T11:01:10.900Z,8.20
2023-01-09T11:03:39.167Z,8.10
2023-01-09T11:06:15.554Z,8.10
2023-01-09T11:08:44.548Z,8.20
2023-01-09T11:11:12.889Z,7.50
2023-01-09T11:13:45.418Z,8.20
2023-01-09T11:16:22.249Z,9.20
2023-01-09T11:18:53.869Z,8.20
2023-01-09T11:21:30.877Z,8.20
2023-01-09T11:24:26.521Z,8.30
2023-01-09T11:26:54.832Z,8.30
2023-01-09T11:29:26.707Z,8.30
2023-01-09T11:31:58.921Z,8.30
2023-01-09T11:34:27.474Z,8.40
2023-01-09T11:37:01.699Z,8.30
2023-01-09T11:39:30.942Z,8.30
2023-01-09T11:42:03.138Z,9.10
2023-01-09T11:44:31.085Z,9.80
2023-01-09T11:46:58.560Z,6.80
2023-01-09T11:49:26.717Z,8.30
2023-01-09T11:52:12.794Z,7.40
2023-01-09T11:54:41.775Z,8.30
2023-01-09T11:57:11.625Z,8.40
2023-01-09T11:59:38.949Z,8.40
2023-01-09T12:02:12.295Z,8.40
2023-01-09T12:04:39.543Z,9.60
2023-01-09T12:07:06.650Z,8.50
2023-01-09T12:09:49.362Z,8.50
2023-01-09T12:12:19.808Z,8.60
2023-01-09T12:14:53.015Z,8.60
2023-01-09T12:17:23.108Z,8.70
2023-01-09T12:19:59.018Z,8.30
2023-01-09T12:22:38.383Z,8.80
2023-01-09T12:25:13.508Z,8.80
2023-01-09T12:27:49.208Z,8.80
2023-01-09T12:30:26.400Z,8.80
2023-01-09T12:33:05.969Z,8.90
2023-01-09T12:35:51.691Z,8.90
2023-01-09T12:38:26.071Z,8.90
2023-01-09T12:40:58.466Z,9.00
2023-01-09T12:43:44.084Z,8.90
2023-01-09T12:46:21.109Z,9.00
2023-01-09T12:48:54.235Z,9.00
2023-01-09T12:51:30.280Z,9.00
2023-01-09T12:53:57.366Z,9.00
2023-01-09T12:56:31.662Z,9.10
2023-01-09T12:59:01.820Z,9.00
2023-01-09T13:01:31.266Z,9.00
2023-01-09T13:04:04.570Z,9.10
2023-01-09T13:06:33.187Z,9.10
2023-01-09T13:09:07.190Z,9.10
2023-01-09T13:11:35.727Z,9.10
2023-01-09T13:14:26.072Z,9.20
2023-01-09T13:16:54.081Z,9.30
2023-01-09T13:19:25.443Z,9.20
2023-01-09T13:21:53.390Z,9.30
2023-01-09T13:24:23.822Z,9.20
2023-01-09T13:26:56.639Z,9.30
2023-01-09T13:29:26.859Z,9.20
2023-01-09T13:32:03.308Z,9.20
2023-01-09T13:34:31.539Z,9.20
2023-01-09T13:36:59.011Z,9.20
2023-01-09T13:39:27.778Z,9.20
2023-01-09T13:42:16.002Z,9.20
2023-01-09T13:44:44.206Z,9.10
2023-01-09T13:47:19.246Z,9.10
2023-01-09T13:49:46.526Z,9.10
2023-01-09T13:52:25.971Z,9.20
2023-01-09T13:54:53.596Z,9.10
2023-01-09T13:57:20.716Z,9.10
2023-01-09T13:59:48.541Z,9.00
2023-01-09T14:02:34.183Z,9.10
2023-01-09T14:05:02.090Z,9.10
2023-01-09T14:07:30.495Z,9.20
2023-01-09T14:10:24.278Z,9.20
2023-01-09T14:12:52.588Z,9.20
2023-01-09T14:15:28.995Z,9.30
2023-01-09T14:18:04.342Z,9.30
2023-01-09T14:20:43.018Z,9.30
2023-01-09T14:23:42.277Z,9.20
2023-01-09T14:26:18.858Z,9.30
2023-01-09T14:28:47.625Z,9.30
2023-01-09T14:31:28.149Z,9.30
2023-01-09T14:34:23.760Z,8.90
2023-01-09T14:36:59.327Z,9.30
2023-01-09T14:39:27.196Z,9.30
2023-01-09T14:41:58.529Z,9.30
2023-01-09T14:44:28.476Z,9.30
2023-01-09T14:46:58.383Z,9.30
2023-01-09T14:49:31.723Z,9.30
2023-01-09T14:52:02.050Z,9.20
2023-01-09T14:54:33.596Z,9.20
2023-01-09T14:57:02.530Z,9.10
2023-01-09T14:59:30.142Z,9.20
2023-01-09T15:01:58.729Z,9.10
2023-01-09T15:04:35.152Z,9.10
2023-01-09T15:07:03.578Z,8.00
2023-01-09T15:09:30.683Z,9.00
2023-01-09T15:12:05.531Z,9.00
2023-01-09T15:14:35.936Z,8.90
2023-01-09T15:17:04.151Z,8.90
2023-01-09T15:19:32.293Z,8.90
2023-01-09T15:22:00.969Z,8.90
2023-01-09T15:24:29.792Z,8.90
2023-01-09T15:26:58.341Z,8.90
2023-01-09T15:29:25.659Z,8.90
2023-01-09T15:31:58.519Z,8.90
2023-01-09T15:34:26.076Z,8.80
2023-01-09T15:36:53.746Z,8.90
2023-01-09T15:39:28.549Z,8.80
2023-01-09T15:42:14.632Z,8.80
2023-01-09T15:44:43.769Z,8.70
2023-01-09T15:47:16.458Z,8.70
2023-01-09T15:49:43.769Z,8.70
2023-01-09T15:52:15.216Z,8.60
2023-01-09T15:54:43.922Z,8.60
2023-01-09T15:57:26.187Z,8.50
2023-01-09T15:59:53.990Z,8.50
2023-01-09T16:02:40.773Z,8.50
2023-01-09T16:05:09.332Z,8.50
2023-01-09T16:07:36.488Z,8.50
2023-01-09T16:10:03.743Z,8.40
2023-01-09T16:12:30.944Z,8.40
2023-01-09T16:14:59.233Z,8.40
2023-01-09T16:17:27.135Z,8.40
2023-01-09T16:19:58.570Z,8.30
2023-01-09T16:22:25.669Z,8.30
2023-01-09T16:24:57.431Z,7.90
2023-01-09T16:27:34.121Z,8.30
2023-01-09T16:30:02.157Z,8.20
2023-01-09T16:32:31.508Z,7.90
2023-01-09T16:35:17.740Z,8.20
2023-01-09T16:37:44.942Z,8.20
2023-01-09T16:40:14.924Z,8.10
2023-01-09T16:43:00.807Z,8.20
2023-01-09T16:45:41.243Z,8.10
2023-01-09T16:48:20.175Z,8.10
2023-01-09T16:50:47.255Z,8.10
2023-01-09T16:53:18.497Z,8.20
2023-01-09T16:55:46.095Z,8.20
2023-01-09T16:58:18.843Z,8.20
2023-01-09T17:00:46.242Z,7.70
2023-01-09T17:03:17.153Z,8.20
2023-01-09T17:05:44.612Z,8.20
2023-01-09T17:08:22.259Z,8.20
2023-01-09T17:10:50.391Z,8.20
2023-01-09T17:13:17.597Z,8.20
2023-01-09T17:15:45.277Z,8.20
2023-01-09T17:18:19.787Z,8.20
2023-01-09T17:20:48.417Z,8.20
2023-01-09T17:23:16.082Z,8.20
2023-01-09T17:26:02.199Z,8.20
2023-01-09T17:28:32.792Z,8.10
2023-01-09T17:31:03.584Z,8.20
2023-01-09T17:33:30.726Z,7.90
2023-01-09T17:35:58.122Z,8.20
2023-01-09T17:38:25.294Z,8.10
2023-01-09T17:40:55.618Z,8.10
2023-01-09T17:43:22.906Z,8.20
2023-01-09T17:45:50.715Z,8.10
2023-01-09T17:48:19.327Z,8.10
2023-01-09T17:50:47.034Z,8.10
2023-01-09T17:53:14.594Z,8.10
2023-01-09T17:55:42.137Z,8.10
2023-01-09T17:58:25.934Z,8.10
2023-01-09T18:00:53.238Z,8.70
2023-01-09T18:03:23.089Z,8.10
2023-01-09T18:05:50.336Z,8.10
2023-01-09T18:08:17.466Z,8.00
2023-01-09T18:10:48.500Z,7.90
2023-01-09T18:13:16.460Z,8.40
2023-01-09T18:15:44.002Z,8.00
2023-01-09T18:18:11.786Z,8.00
2023-01-09T18:20:40.455Z,8.00
2023-01-09T18:23:08.175Z,8.60
2023-01-09T18:25:35.373Z,8.00
2023-01-09T18:28:03.377Z,7.90
2023-01-09T18:30:30.764Z,8.00
2023-01-09T18:32:57.832Z,8.00
2023-01-09T18:35:24.961Z,7.90
2023-01-09T18:37:52.117Z,8.00
2023-01-09T18:40:19.638Z,7.90
2023-01-09T18:42:48.490Z,7.90
2023-01-09T18:45:15.871Z,7.90
2023-01-09T18:47:43.049Z,7.90
2023-01-09T18:50:10.528Z,7.90
2023-01-09T18:52:37.701Z,7.90
2023-01-09T18:55:05.168Z,7.90
2023-01-09T18:57:32.304Z,7.90
2023-01-09T18:59:59.491Z,7.90
2023-01-09T19:02:26.915Z,7.90
2023-01-09T19:04:54.035Z,7.90
2023-01-09T19:07:21.357Z,7.80
2023-01-09T19:09:48.507Z,7.80
2023-01-09T19:12:15.645Z,7.80
2023-01-09T19:14:42.736Z,7.70
2023-01-09T19:17:09.872Z,7.80
2023-01-09T19:19:37.027Z,7.70
2023-01-09T19:22:04.167Z,7.70
2023-01-09T19:24:33.014Z,7.70
2023-01-09T19:27:00.310Z,7.50
2023-01-09T19:29:28.100Z,7.60
2023-01-09T19:31:56.879Z,7.60
2023-01-09T19:34:24.241Z,7.60
2023-01-09T19:36:51.486Z,7.60
2023-01-09T19:39:18.684Z,7.60
2023-01-09T19:41:45.791Z,7.60
2023-01-09T19:44:13.760Z,7.50
2023-01-09T19:46:40.852Z,7.50
2023-01-09T19:49:08.970Z,7.60
2023-01-09T19:51:36.388Z,7.50
2023-01-09T19:56:31.856Z,7.50
2023-01-09T19:59:00.085Z,7.50
2023-01-09T20:01:29.054Z,7.60
2023-01-09T20:03:57.267Z,7.50
2023-01-09T20:06:26.387Z,7.50
2023-01-09T20:08:54.776Z,7.50
2023-01-09T20:11:22.373Z,7.50
2023-01-09T20:13:49.501Z,7.50
2023-01-09T20:16:17.939Z,7.50
2023-01-09T20:18:45.130Z,7.50
2023-01-09T20:21:16.614Z,7.50
2023-01-09T20:23:43.850Z,7.60
2023-01-09T20:26:10.946Z,7.60
2023-01-09T20:28:38.174Z,7.60
2023-01-09T20:31:09.054Z,7.60
2023-01-09T20:33:36.396Z,7.60
2023-01-09T20:36:04.780Z,7.80
2023-01-09T20:38:32.630Z,8.40
2023-01-09T20:41:06.310Z,7.60
2023-01-09T20:43:33.403Z,7.50
2023-01-09T20:46:04.086Z,7.50
2023-01-09T20:48:31.654Z,7.40
2023-01-09T20:51:09.165Z,7.40
2023-01-09T20:53:36.377Z,7.40
2023-01-09T20:56:04.815Z,7.40
2023-01-09T20:58:32.197Z,7.40
2023-01-09T21:01:09.530Z,7.20
2023-01-09T21:03:37.059Z,7.20
2023-01-09T21:06:08.170Z,7.20
2023-01-09T21:08:35.923Z,7.10
2023-01-09T21:11:04.035Z,7.20
2023-01-09T21:13:31.913Z,7.20
2023-01-09T21:16:02.935Z,7.00
2023-01-09T21:18:30.321Z,7.10
2023-01-09T21:20:57.999Z,7.10
2023-01-09T21:23:25.246Z,7.10
2023-01-09T21:25:52.404Z,7.10
2023-01-09T21:28:20.336Z,7.10
2023-01-09T21:30:49.882Z,7.10
2023-01-09T21:33:23.961Z,7.10
2023-01-09T21:35:55.152Z,7.10
2023-01-09T21:38:25.617Z,7.10
2023-01-09T21:40:53.457Z,7.10
2023-01-09T21:43:48.750Z,7.20
2023-01-09T21:46:35.931Z,6.00
2023-01-09T21:49:06.774Z,7.20
2023-01-09T21:51:38.985Z,7.20
2023-01-09T21:54:06.213Z,7.20
2023-01-09T21:56:33.402Z,7.10
2023-01-09T21:59:00.927Z,7.20
2023-01-09T22:01:28.184Z,7.20
2023-01-09T22:03:58.746Z,7.20
2023-01-09T22:06:26.313Z,7.20
2023-01-09T22:08:53.471Z,6.50
2023-01-09T22:11:20.597Z,8.30
2023-01-09T22:13:48.548Z,7.10
2023-01-09T22:16:15.860Z,8.10
2023-01-09T22:18:43.114Z,7.70
2023-01-09T22:21:10.323Z,7.10
2023-01-09T22:23:37.459Z,7.10
2023-01-09T22:26:11.149Z,7.10
2023-01-09T22:28:38.767Z,7.00
2023-01-09T22:31:15.313Z,7.00
2023-01-09T22:33:42.925Z,7.00
2023-01-09T22:36:11.591Z,7.00
2023-01-09T22:38:38.913Z,7.00
2023-01-09T22:41:06.187Z,7.00
2023-01-09T22:43:33.331Z,7.00
2023-01-09T22:46:01.759Z,7.00
2023-01-09T22:48:31.656Z,7.00
2023-01-09T22:50:59.396Z,7.10
2023-01-09T22:53:26.476Z,7.00
2023-01-09T22:56:01.755Z,7.00
2023-01-09T22:58:30.428Z,7.00
2023-01-09T23:00:57.884Z,7.00
2023-01-09T23:03:24.993Z,7.00
2023-01-09T23:06:01.893Z,7.10
2023-01-09T23:08:29.709Z,7.00
2023-01-09T23:10:56.948Z,6.90
2023-01-09T23:13:24.108Z,6.90
2023-01-09T23:15:51.559Z,6.70
2023-01-09T23:18:18.797Z,6.90
2023-01-09T23:20:52.878Z,6.80
2023-01-09T23:23:21.147Z,6.80
2023-01-09T23:25:52.499Z,6.80
2023-01-09T23:28:19.733Z,6.80
2023-01-09T23:30:47.678Z,6.80
2023-01-09T23:33:16.599Z,6.80
2023-01-09T23:35:44.545Z,6.80
2023-01-09T23:38:11.980Z,6.80
2023-01-09T23:40:39.969Z,6.80
2023-01-09T23:43:10.381Z,6.90
2023-01-09T23:45:41.745Z,6.70
2023-01-09T23:48:10.116Z,6.70
2023-01-09T23:50:37.453Z,6.70
2023-01-09T23:53:04.793Z,7.20
2023-01-09T23:55:32.141Z,6.90
2023-01-09T23:57:59.329Z,7.20
